Time;durP1;ratioP1;P1;durP2;ratioP2;P2;SDS_P1;SDS_P2;PMS_P1;PMS_P2;Temp;Humidity;BMP_temperature;BMP_pressure;BME280_temperature;BME280_humidity;BME280_pressure;Samples;Min_cycle;Max_cycle;Signal;HPM_P1;HPM_P2
2022/05/14 00:01:23;;;;;;;0.33;0.33;;;;;;;;;;1854799;75;27193;-42
2022/05/14 00:03:51;;;;;;;0.40;0.40;;;;;;;;;;1856525;75;26275;-40
2022/05/14 00:06:20;;;;;;;0.40;0.40;;;;;;;;;;1859953;75;26270;-43
2022/05/14 00:08:48;;;;;;;0.75;0.40;;;;;;;;;;1878553;76;26653;-42
2022/05/14 00:14:03;;;;;;;0.50;0.50;;;;;;;;;;1871979;75;26676;-42
2022/05/14 00:16:35;;;;;;;0.53;0.53;;;;;;;;;;1871373;76;26778;-42
2022/05/14 00:19:01;;;;;;;0.78;0.60;;;;;;;;;;1868775;75;26253;-44
2022/05/14 00:21:29;;;;;;;0.50;0.50;;;;;;;;;;1880157;76;26713;-41
2022/05/14 00:23:58;;;;;;;0.40;0.40;;;;;;;;;;1869413;76;26328;-42
2022/05/14 00:26:26;;;;;;;0.50;0.50;;;;;;;;;;1887708;75;26308;-42
2022/05/14 00:28:53;;;;;;;0.50;0.50;;;;;;;;;;1878220;75;26254;-41
2022/05/14 00:31:21;;;;;;;0.50;0.50;;;;;;;;;;1880451;76;26259;-42
2022/05/14 00:33:48;;;;;;;0.78;0.40;;;;;;;;;;1880704;76;26710;-44
2022/05/14 00:36:15;;;;;;;0.40;0.40;;;;;;;;;;1876705;75;26678;-44
2022/05/14 00:38:43;;;;;;;0.30;0.30;;;;;;;;;;1878926;75;26242;-44
2022/05/14 00:41:10;;;;;;;2.35;0.40;;;;;;;;;;1880331;75;26698;-44
2022/05/14 00:43:51;;;;;;;0.40;0.40;;;;;;;;;;1865515;76;26211;-42
2022/05/14 00:46:20;;;;;;;0.50;0.50;;;;;;;;;;1866376;75;26303;-42
2022/05/14 00:48:49;;;;;;;0.50;0.50;;;;;;;;;;1862269;75;26273;-42
2022/05/14 00:51:18;;;;;;;0.40;0.40;;;;;;;;;;1837115;78;26769;-41
2022/05/14 00:53:46;;;;;;;0.40;0.40;;;;;;;;;;1837157;78;26395;-44
2022/05/14 00:56:19;;;;;;;0.40;0.40;;;;;;;;;;1864935;75;26710;-42
2022/05/14 00:59:04;;;;;;;0.40;0.40;;;;;;;;;;1895119;74;26815;-41
2022/05/14 01:01:31;;;;;;;0.40;0.40;;;;;;;;;;1895662;75;26207;-42
2022/05/14 01:03:58;;;;;;;0.40;0.40;;;;;;;;;;1895864;75;26282;-41
2022/05/14 01:06:26;;;;;;;0.42;0.42;;;;;;;;;;1895870;75;26816;-41
2022/05/14 01:08:54;;;;;;;0.45;0.45;;;;;;;;;;1893194;75;26190;-42
2022/05/14 01:11:21;;;;;;;0.40;0.40;;;;;;;;;;1906528;74;26312;-41
2022/05/14 01:13:49;;;;;;;0.37;0.37;;;;;;;;;;1895685;75;26312;-41
2022/05/14 01:16:17;;;;;;;0.45;0.45;;;;;;;;;;1875658;74;26353;-40
2022/05/14 01:18:44;;;;;;;0.40;0.40;;;;;;;;;;1869972;75;26234;-42
2022/05/14 01:21:13;;;;;;;0.40;0.40;;;;;;;;;;1874723;75;26270;-43
2022/05/14 01:26:30;;;;;;;0.40;0.40;;;;;;;;;;1904003;75;26328;-41
2022/05/14 01:28:59;;;;;;;0.40;0.40;;;;;;;;;;1894725;75;26763;-40
2022/05/14 01:31:27;;;;;;;0.30;0.30;;;;;;;;;;1882024;75;26722;-43
2022/05/14 01:33:55;;;;;;;0.30;0.30;;;;;;;;;;1890504;74;26187;-42
2022/05/14 01:36:23;;;;;;;0.40;0.40;;;;;;;;;;1895867;75;26691;-40
2022/05/14 01:38:50;;;;;;;0.40;0.40;;;;;;;;;;1895397;75;26206;-43
2022/05/14 01:41:18;;;;;;;0.50;0.50;;;;;;;;;;1873929;75;26813;-42
2022/05/14 01:43:45;;;;;;;0.33;0.33;;;;;;;;;;1872067;74;26757;-42
2022/05/14 01:46:12;;;;;;;0.37;0.37;;;;;;;;;;1880783;74;26226;-41
2022/05/14 01:48:41;;;;;;;0.30;0.30;;;;;;;;;;1895433;75;26439;-40
2022/05/14 01:51:08;;;;;;;0.30;0.30;;;;;;;;;;1895215;75;26274;-41
2022/05/14 01:53:35;;;;;;;0.40;0.40;;;;;;;;;;1893756;75;26241;-41
2022/05/14 01:56:03;;;;;;;0.40;0.40;;;;;;;;;;1882755;75;26423;-41
2022/05/14 01:58:36;;;;;;;0.50;0.50;;;;;;;;;;1894267;75;26321;-41
2022/05/14 02:01:07;;;;;;;0.45;0.45;;;;;;;;;;1879021;75;26294;-40
2022/05/14 02:03:35;;;;;;;0.30;0.30;;;;;;;;;;1895161;75;26705;-42
2022/05/14 02:06:04;;;;;;;0.40;0.40;;;;;;;;;;1898186;74;26816;-41
2022/05/14 02:08:31;;;;;;;0.30;0.30;;;;;;;;;;1912572;74;26258;-42
2022/05/14 02:10:59;;;;;;;0.90;0.50;;;;;;;;;;1869306;75;26281;-40
2022/05/14 02:13:27;;;;;;;0.33;0.33;;;;;;;;;;1896091;75;26691;-42
2022/05/14 02:15:54;;;;;;;0.50;0.50;;;;;;;;;;1884890;75;26318;-42
2022/05/14 02:18:22;;;;;;;0.30;0.30;;;;;;;;;;1894756;74;26308;-41
2022/05/14 02:20:49;;;;;;;0.40;0.40;;;;;;;;;;1895732;75;26723;-41
2022/05/14 02:23:17;;;;;;;1.07;0.30;;;;;;;;;;1895798;75;26303;-43
2022/05/14 02:25:44;;;;;;;0.30;0.30;;;;;;;;;;1896058;75;26252;-41
2022/05/14 02:28:11;;;;;;;0.40;0.40;;;;;;;;;;1895529;75;26305;-44
2022/05/14 02:30:39;;;;;;;0.40;0.40;;;;;;;;;;1895507;74;26296;-40
2022/05/14 02:33:06;;;;;;;0.35;0.35;;;;;;;;;;1895632;75;26752;-45
2022/05/14 02:35:34;;;;;;;0.37;0.37;;;;;;;;;;1876423;75;26265;-41
2022/05/14 02:38:01;;;;;;;0.30;0.30;;;;;;;;;;1895587;75;26294;-44
2022/05/14 02:40:29;;;;;;;0.40;0.40;;;;;;;;;;1884354;74;26523;-42
2022/05/14 02:42:57;;;;;;;0.28;0.28;;;;;;;;;;1893105;75;26622;-41
2022/05/14 02:45:24;;;;;;;0.30;0.30;;;;;;;;;;1872665;75;26272;-42
2022/05/14 02:47:51;;;;;;;0.30;0.30;;;;;;;;;;1893369;75;26690;-40
2022/05/14 02:50:19;;;;;;;0.40;0.40;;;;;;;;;;1895864;75;26726;-42
2022/05/14 02:52:46;;;;;;;0.30;0.30;;;;;;;;;;1870447;74;26375;-42
2022/05/14 02:55:14;;;;;;;0.28;0.28;;;;;;;;;;1888098;75;26347;-42
2022/05/14 02:57:42;;;;;;;0.35;0.35;;;;;;;;;;1868260;75;27971;-41
2022/05/14 03:00:11;;;;;;;0.40;0.40;;;;;;;;;;1889038;74;26270;-40
2022/05/14 03:02:38;;;;;;;0.30;0.30;;;;;;;;;;1895902;74;26635;-40
2022/05/14 03:05:07;;;;;;;0.20;0.20;;;;;;;;;;1896134;75;26270;-44
2022/05/14 03:07:34;;;;;;;0.37;0.37;;;;;;;;;;1896382;74;26230;-40
2022/05/14 03:10:01;;;;;;;0.30;0.30;;;;;;;;;;1863886;77;26272;-40
2022/05/14 03:12:29;;;;;;;0.30;0.30;;;;;;;;;;1888389;75;26719;-41
2022/05/14 03:14:56;;;;;;;0.40;0.40;;;;;;;;;;1877788;74;26205;-42
2022/05/14 03:17:24;;;;;;;0.30;0.30;;;;;;;;;;1895698;75;26238;-42
2022/05/14 03:19:52;;;;;;;0.28;0.28;;;;;;;;;;1895667;75;26328;-40
2022/05/14 03:22:19;;;;;;;0.20;0.20;;;;;;;;;;1896043;75;26246;-41
2022/05/14 03:24:47;;;;;;;0.30;0.30;;;;;;;;;;1892435;75;26242;-42
2022/05/14 03:27:14;;;;;;;0.40;0.40;;;;;;;;;;1870799;74;26725;-42
2022/05/14 03:29:41;;;;;;;0.30;0.30;;;;;;;;;;1895753;75;26331;-43
2022/05/14 03:32:09;;;;;;;0.30;0.30;;;;;;;;;;1894661;75;26270;-42
2022/05/14 03:34:36;;;;;;;0.30;0.30;;;;;;;;;;1895905;75;26332;-41
2022/05/14 03:37:04;;;;;;;1.22;0.28;;;;;;;;;;1909009;74;26403;-41
2022/05/14 03:39:32;;;;;;;1.02;0.30;;;;;;;;;;1929098;74;26359;-42
2022/05/14 03:41:59;;;;;;;0.40;0.40;;;;;;;;;;1908739;74;26242;-41
2022/05/14 03:44:27;;;;;;;0.30;0.30;;;;;;;;;;1896021;75;26789;-42
2022/05/14 03:46:54;;;;;;;0.20;0.20;;;;;;;;;;1891860;75;26780;-41
2022/05/14 03:49:21;;;;;;;0.28;0.28;;;;;;;;;;1882471;74;26238;-42
2022/05/14 03:51:49;;;;;;;0.30;0.30;;;;;;;;;;1882936;74;26343;-42
2022/05/14 03:54:16;;;;;;;0.35;0.35;;;;;;;;;;1881914;75;26274;-43
2022/05/14 03:56:43;;;;;;;0.30;0.30;;;;;;;;;;1878854;75;26805;-41
2022/05/14 03:59:11;;;;;;;0.30;0.30;;;;;;;;;;1868365;75;26694;-42
2022/05/14 04:01:39;;;;;;;0.23;0.23;;;;;;;;;;1880703;75;26262;-42
2022/05/14 04:04:06;;;;;;;0.53;0.20;;;;;;;;;;1848557;76;26717;-42
2022/05/14 04:06:34;;;;;;;0.30;0.30;;;;;;;;;;1880050;76;26240;-41
2022/05/14 04:09:02;;;;;;;0.30;0.30;;;;;;;;;;1867015;76;26295;-41
2022/05/14 04:11:29;;;;;;;0.30;0.30;;;;;;;;;;1878812;75;26239;-43
2022/05/14 04:13:57;;;;;;;0.40;0.40;;;;;;;;;;1852867;76;26182;-40
2022/05/14 04:16:24;;;;;;;0.30;0.30;;;;;;;;;;1880571;75;26254;-41
2022/05/14 04:18:51;;;;;;;0.23;0.23;;;;;;;;;;1879876;76;26231;-43
2022/05/14 04:21:19;;;;;;;0.30;0.30;;;;;;;;;;1880365;75;26251;-42
2022/05/14 04:23:46;;;;;;;0.23;0.23;;;;;;;;;;1848918;75;26642;-40
2022/05/14 04:26:14;;;;;;;0.23;0.23;;;;;;;;;;1869841;75;26243;-45
2022/05/14 04:28:42;;;;;;;0.42;0.42;;;;;;;;;;1878842;75;26290;-44
2022/05/14 04:31:09;;;;;;;0.30;0.30;;;;;;;;;;1879455;75;26204;-46
2022/05/14 04:33:37;;;;;;;0.23;0.23;;;;;;;;;;1893686;75;26914;-41
2022/05/14 04:36:04;;;;;;;0.20;0.20;;;;;;;;;;1906769;75;26261;-44
2022/05/14 04:38:31;;;;;;;0.20;0.20;;;;;;;;;;1880407;76;26324;-41
2022/05/14 04:40:59;;;;;;;0.25;0.25;;;;;;;;;;1881161;75;26275;-42
2022/05/14 04:43:26;;;;;;;0.25;0.25;;;;;;;;;;1873850;75;26250;-41
2022/05/14 04:45:53;;;;;;;0.30;0.30;;;;;;;;;;1887399;75;26273;-42
2022/05/14 04:48:21;;;;;;;0.30;0.30;;;;;;;;;;1880184;75;26328;-42
2022/05/14 04:50:48;;;;;;;0.20;0.20;;;;;;;;;;1880571;75;26721;-42
2022/05/14 04:53:17;;;;;;;0.30;0.30;;;;;;;;;;1880313;76;26324;-40
2022/05/14 04:55:44;;;;;;;0.20;0.20;;;;;;;;;;1872004;75;26732;-40
2022/05/14 04:58:12;;;;;;;0.30;0.30;;;;;;;;;;1848190;76;26270;-43
2022/05/14 05:00:41;;;;;;;0.25;0.25;;;;;;;;;;1880388;75;26791;-41
2022/05/14 05:03:17;;;;;;;0.25;0.25;;;;;;;;;;1876632;76;26299;-40
2022/05/14 05:05:45;;;;;;;0.20;0.20;;;;;;;;;;1877097;75;26243;-44
2022/05/14 05:08:13;;;;;;;0.30;0.30;;;;;;;;;;1876467;75;26286;-43
2022/05/14 05:10:40;;;;;;;0.30;0.30;;;;;;;;;;1879539;76;26319;-40
2022/05/14 05:13:10;;;;;;;0.25;0.25;;;;;;;;;;1879872;76;26258;-41
2022/05/14 05:15:37;;;;;;;0.20;0.20;;;;;;;;;;1878189;76;27404;-43
2022/05/14 05:18:05;;;;;;;0.40;0.40;;;;;;;;;;1875839;75;26242;-41
2022/05/14 05:20:33;;;;;;;0.30;0.30;;;;;;;;;;1880016;75;26222;-44
2022/05/14 05:23:00;;;;;;;0.30;0.30;;;;;;;;;;1879991;75;26219;-41
2022/05/14 05:25:28;;;;;;;0.20;0.20;;;;;;;;;;1880033;76;26236;-41
2022/05/14 05:27:56;;;;;;;0.30;0.30;;;;;;;;;;1879754;75;26738;-43
2022/05/14 05:30:23;;;;;;;0.20;0.20;;;;;;;;;;1877073;75;26235;-42
2022/05/14 05:32:51;;;;;;;0.30;0.20;;;;;;;;;;1877497;75;26336;-41
2022/05/14 05:35:20;;;;;;;0.30;0.30;;;;;;;;;;1879592;75;26231;-42
2022/05/14 05:37:48;;;;;;;0.30;0.30;;;;;;;;;;1876299;75;26783;-43
2022/05/14 05:40:15;;;;;;;0.30;0.30;;;;;;;;;;1879170;76;26373;-44
2022/05/14 05:42:43;;;;;;;0.23;0.23;;;;;;;;;;1871920;75;26242;-43
2022/05/14 05:45:12;;;;;;;0.35;0.35;;;;;;;;;;1872685;75;26332;-41
2022/05/14 05:47:40;;;;;;;0.23;0.23;;;;;;;;;;1875840;76;26775;-43
2022/05/14 05:50:08;;;;;;;0.28;0.28;;;;;;;;;;1874828;76;26332;-42
2022/05/14 05:52:35;;;;;;;0.20;0.20;;;;;;;;;;1876752;75;26244;-43
2022/05/14 05:57:48;;;;;;;0.62;0.62;;;;;;;;;;1874545;76;26256;-44
2022/05/14 06:00:18;;;;;;;0.20;0.20;;;;;;;;;;1874462;75;26266;-42
2022/05/14 06:02:49;;;;;;;0.45;0.37;;;;;;;;;;1877122;76;26191;-41
2022/05/14 06:05:17;;;;;;;0.40;0.40;;;;;;;;;;1872741;75;26254;-41
2022/05/14 06:07:45;;;;;;;2.02;0.75;;;;;;;;;;1874344;76;26692;-38
2022/05/14 06:10:14;;;;;;;2.45;0.50;;;;;;;;;;1872228;76;26319;-42
2022/05/14 06:12:41;;;;;;;2.45;0.50;;;;;;;;;;1879629;76;26196;-42
2022/05/14 06:15:10;;;;;;;1.95;0.37;;;;;;;;;;1879482;76;26239;-45
2022/05/14 06:17:38;;;;;;;3.72;0.45;;;;;;;;;;1872950;76;27026;-41
2022/05/14 06:20:07;;;;;;;1.47;0.40;;;;;;;;;;1878832;76;26308;-43
2022/05/14 06:22:34;;;;;;;1.75;0.55;;;;;;;;;;1879474;76;26683;-43
2022/05/14 06:25:02;;;;;;;0.90;0.45;;;;;;;;;;1879704;76;26313;-42
2022/05/14 06:27:30;;;;;;;0.50;0.50;;;;;;;;;;1879539;76;26305;-42
2022/05/14 06:29:57;;;;;;;0.70;0.50;;;;;;;;;;1875357;76;26223;-42
2022/05/14 06:32:24;;;;;;;4.12;0.50;;;;;;;;;;1875649;75;26236;-41
2022/05/14 06:34:52;;;;;;;6.60;0.53;;;;;;;;;;1877241;76;27034;-47
2022/05/14 06:37:19;;;;;;;0.98;0.50;;;;;;;;;;1873828;76;26650;-43
2022/05/14 06:39:46;;;;;;;1.35;0.60;;;;;;;;;;1875308;76;26333;-41
2022/05/14 06:42:14;;;;;;;2.12;0.50;;;;;;;;;;1876676;76;26287;-42
2022/05/14 06:44:42;;;;;;;1.45;0.60;;;;;;;;;;1875760;76;26442;-43
2022/05/14 06:47:09;;;;;;;1.05;0.57;;;;;;;;;;1877274;75;26250;-45
2022/05/14 06:49:36;;;;;;;3.65;0.60;;;;;;;;;;1880033;75;26293;-42
2022/05/14 06:52:04;;;;;;;3.72;0.85;;;;;;;;;;1880385;76;26262;-42
2022/05/14 06:54:33;;;;;;;7.10;0.90;;;;;;;;;;1857597;76;26222;-41
2022/05/14 06:57:01;;;;;;;1.35;0.95;;;;;;;;;;1877288;75;26282;-43
2022/05/14 06:59:28;;;;;;;1.95;0.80;;;;;;;;;;1874299;76;26819;-41
2022/05/14 07:01:56;;;;;;;5.90;0.90;;;;;;;;;;1874365;76;26853;-42
2022/05/14 07:07:08;;;;;;;3.10;0.82;;;;;;;;;;1875574;76;26241;-41
2022/05/14 07:09:36;;;;;;;2.12;0.70;;;;;;;;;;1870975;75;26379;-44
2022/05/14 07:12:05;;;;;;;5.25;0.70;;;;;;;;;;1875326;75;25799;-42
2022/05/14 07:14:32;;;;;;;3.15;0.60;;;;;;;;;;1873222;75;26274;-42
2022/05/14 07:17:00;;;;;;;2.45;0.45;;;;;;;;;;1875179;75;26239;-42
2022/05/14 07:19:27;;;;;;;1.57;0.60;;;;;;;;;;1875959;75;26336;-41
2022/05/14 07:21:56;;;;;;;1.67;0.65;;;;;;;;;;1875809;75;26309;-43
2022/05/14 07:24:25;;;;;;;1.40;0.70;;;;;;;;;;1875967;75;26247;-43
2022/05/14 07:26:54;;;;;;;1.30;0.68;;;;;;;;;;1874768;75;26247;-43
2022/05/14 07:29:22;;;;;;;0.82;0.57;;;;;;;;;;1873291;76;26306;-42
2022/05/14 07:31:50;;;;;;;1.65;0.62;;;;;;;;;;1873442;76;26681;-42
2022/05/14 07:34:18;;;;;;;2.15;0.60;;;;;;;;;;1872220;76;26316;-41
2022/05/14 07:36:46;;;;;;;1.32;0.70;;;;;;;;;;1873542;76;26317;-41
2022/05/14 07:39:14;;;;;;;0.72;0.60;;;;;;;;;;1877880;75;26542;-41
2022/05/14 07:41:42;;;;;;;0.93;0.80;;;;;;;;;;1867778;76;26849;-43
2022/05/14 07:44:11;;;;;;;1.35;0.60;;;;;;;;;;1869452;75;26319;-41
2022/05/14 07:46:39;;;;;;;1.47;0.60;;;;;;;;;;1869541;76;26727;-40
2022/05/14 07:49:08;;;;;;;1.10;0.50;;;;;;;;;;1871885;76;26274;-40
2022/05/14 07:51:35;;;;;;;2.02;0.60;;;;;;;;;;1879427;76;27454;-40
2022/05/14 07:54:03;;;;;;;1.27;0.62;;;;;;;;;;1873470;75;26915;-41
2022/05/14 07:56:31;;;;;;;1.30;0.70;;;;;;;;;;1872819;76;26235;-41
2022/05/14 07:58:58;;;;;;;1.95;0.50;;;;;;;;;;1872356;75;26318;-42
2022/05/14 08:01:25;;;;;;;0.60;0.60;;;;;;;;;;1884552;75;26336;-40
2022/05/14 08:03:53;;;;;;;0.60;0.60;;;;;;;;;;1895027;75;27368;-41
2022/05/14 08:06:22;;;;;;;0.57;0.47;;;;;;;;;;1894384;75;26218;-44
2022/05/14 08:08:51;;;;;;;1.27;0.60;;;;;;;;;;1891723;74;26653;-41
2022/05/14 08:11:18;;;;;;;1.12;0.55;;;;;;;;;;1894883;75;26610;-40
2022/05/14 08:13:45;;;;;;;0.98;0.57;;;;;;;;;;1894800;75;26250;-41
2022/05/14 08:16:13;;;;;;;0.40;0.40;;;;;;;;;;1891307;74;26312;-41
2022/05/14 08:18:40;;;;;;;1.05;0.57;;;;;;;;;;1893548;75;26371;-41
2022/05/14 08:26:38;;;;;;;0.50;0.50;;;;;;;;;;1892454;75;26766;-40
2022/05/14 08:29:06;;;;;;;0.60;0.60;;;;;;;;;;1895055;75;26218;-41
2022/05/14 08:31:33;;;;;;;0.50;0.50;;;;;;;;;;1895186;74;26246;-43
2022/05/14 08:34:01;;;;;;;1.57;0.57;;;;;;;;;;1894971;75;26718;-40
2022/05/14 08:36:29;;;;;;;0.55;0.55;;;;;;;;;;1892174;74;26373;-42
2022/05/14 08:38:56;;;;;;;0.90;0.90;;;;;;;;;;1894614;75;26246;-41
2022/05/14 08:41:24;;;;;;;0.40;0.40;;;;;;;;;;1891514;74;26238;-40
2022/05/14 08:43:53;;;;;;;0.60;0.60;;;;;;;;;;1890757;75;25977;-40
2022/05/14 08:46:23;;;;;;;0.60;0.60;;;;;;;;;;1893039;74;26225;-42
2022/05/14 08:48:51;;;;;;;1.17;0.90;;;;;;;;;;1890351;74;26328;-40
2022/05/14 08:51:23;;;;;;;1.20;0.55;;;;;;;;;;1890212;75;26304;-40
2022/05/14 08:53:51;;;;;;;2.10;0.60;;;;;;;;;;1897618;74;26266;-41
2022/05/14 08:56:23;;;;;;;0.47;0.42;;;;;;;;;;1883385;75;26714;-40
2022/05/14 08:58:52;;;;;;;1.57;0.60;;;;;;;;;;1895016;75;26308;-42
2022/05/14 09:01:21;;;;;;;2.55;0.82;;;;;;;;;;1888952;75;26262;-44
2022/05/14 09:03:48;;;;;;;0.57;0.57;;;;;;;;;;1894582;74;26254;-41
2022/05/14 09:06:16;;;;;;;2.22;0.60;;;;;;;;;;1894775;75;26517;-41
2022/05/14 09:08:43;;;;;;;0.55;0.55;;;;;;;;;;1889064;74;26316;-40
2022/05/14 09:11:18;;;;;;;0.60;0.60;;;;;;;;;;1894705;75;26294;-41
2022/05/14 09:13:47;;;;;;;0.40;0.40;;;;;;;;;;1882954;75;26335;-41
2022/05/14 09:16:35;;;;;;;0.50;0.50;;;;;;;;;;1891460;74;26266;-42
2022/05/14 09:19:13;;;;;;;0.60;0.60;;;;;;;;;;1888823;75;26312;-43
2022/05/14 09:21:42;;;;;;;0.50;0.50;;;;;;;;;;1889618;75;26256;-40
2022/05/14 09:24:19;;;;;;;0.60;0.60;;;;;;;;;;1893938;75;26284;-41
2022/05/14 09:26:46;;;;;;;0.50;0.50;;;;;;;;;;1888756;74;26896;-42
2022/05/14 09:29:18;;;;;;;1.02;0.50;;;;;;;;;;1892057;75;26274;-40
2022/05/14 09:31:53;;;;;;;0.50;0.50;;;;;;;;;;1891049;75;26237;-42
2022/05/14 09:34:21;;;;;;;1.87;0.70;;;;;;;;;;1897885;74;27371;-42
2022/05/14 09:36:50;;;;;;;0.53;0.53;;;;;;;;;;1887077;75;26238;-40
2022/05/14 09:39:22;;;;;;;1.60;0.70;;;;;;;;;;1899619;74;26230;-41
2022/05/14 09:41:53;;;;;;;0.70;0.70;;;;;;;;;;1891944;75;26245;-42
2022/05/14 09:44:35;;;;;;;0.80;0.80;;;;;;;;;;1894606;75;26254;-41
2022/05/14 09:47:08;;;;;;;0.98;0.68;;;;;;;;;;1881417;75;26714;-42
2022/05/14 09:49:40;;;;;;;1.47;0.85;;;;;;;;;;1886312;75;26295;-43
2022/05/14 09:52:06;;;;;;;1.20;1.10;;;;;;;;;;1893222;75;26250;-41
2022/05/14 09:54:38;;;;;;;0.90;0.90;;;;;;;;;;1883282;75;26272;-40
2022/05/14 09:57:09;;;;;;;2.12;1.70;;;;;;;;;;1890719;74;26250;-41
2022/05/14 09:59:41;;;;;;;4.28;3.20;;;;;;;;;;1876634;74;26255;-44
2022/05/14 10:02:14;;;;;;;5.58;3.83;;;;;;;;;;1893263;74;26310;-42
2022/05/14 10:04:49;;;;;;;3.77;3.42;;;;;;;;;;1873657;75;26338;-46
2022/05/14 10:07:21;;;;;;;6.45;4.28;;;;;;;;;;1865577;75;26710;-41
2022/05/14 10:10:06;;;;;;;7.22;4.85;;;;;;;;;;1892497;75;26332;-42
2022/05/14 10:12:35;;;;;;;8.83;5.33;;;;;;;;;;1894824;74;26246;-41
2022/05/14 10:15:06;;;;;;;10.78;6.08;;;;;;;;;;1893352;74;26627;-43
2022/05/14 10:17:44;;;;;;;11.08;5.47;;;;;;;;;;1891185;75;26718;-40
2022/05/14 10:20:13;;;;;;;8.80;5.22;;;;;;;;;;1895193;75;26289;-41
2022/05/14 10:28:15;;;;;;;8.80;5.08;;;;;;;;;;1880655;75;26302;-42
2022/05/14 10:30:47;;;;;;;7.53;4.20;;;;;;;;;;1888770;74;26879;-43
2022/05/14 10:33:17;;;;;;;6.25;3.95;;;;;;;;;;1894366;75;26783;-44
2022/05/14 10:35:49;;;;;;;8.35;3.85;;;;;;;;;;1897653;74;26344;-45
2022/05/14 10:38:27;;;;;;;6.15;3.67;;;;;;;;;;1891112;75;26245;-43
2022/05/14 10:40:56;;;;;;;4.83;3.27;;;;;;;;;;1895838;75;26226;-42
2022/05/14 10:43:33;;;;;;;5.33;2.92;;;;;;;;;;1887080;75;26824;-43
2022/05/14 10:46:03;;;;;;;5.65;3.02;;;;;;;;;;1888874;74;26644;-45
2022/05/14 10:48:33;;;;;;;8.20;2.30;;;;;;;;;;1893116;75;26360;-41
2022/05/14 10:51:01;;;;;;;5.20;2.08;;;;;;;;;;1863379;76;26292;-42
2022/05/14 10:53:29;;;;;;;5.35;2.30;;;;;;;;;;1863354;75;26342;-43
2022/05/14 10:56:01;;;;;;;3.67;2.05;;;;;;;;;;1865435;74;26281;-43
2022/05/14 10:58:46;;;;;;;9.70;2.62;;;;;;;;;;1864084;74;26827;-44
2022/05/14 11:01:31;;;;;;;6.28;1.85;;;;;;;;;;1905780;74;26333;-44
2022/05/14 11:04:00;;;;;;;4.42;1.55;;;;;;;;;;1867624;74;27298;-44
2022/05/14 11:06:28;;;;;;;4.80;1.75;;;;;;;;;;1856967;77;26327;-45
2022/05/14 11:08:56;;;;;;;5.60;1.40;;;;;;;;;;1875169;74;26751;-44
2022/05/14 11:11:28;;;;;;;3.08;1.40;;;;;;;;;;1885231;76;26316;-43
2022/05/14 11:13:57;;;;;;;2.83;1.40;;;;;;;;;;1888401;75;26571;-44
2022/05/14 11:16:26;;;;;;;1.65;1.50;;;;;;;;;;1866550;76;26342;-42
2022/05/14 11:18:55;;;;;;;1.70;1.10;;;;;;;;;;1855092;74;26284;-45
2022/05/14 11:21:24;;;;;;;2.47;1.30;;;;;;;;;;1856747;76;26442;-41
2022/05/14 11:23:56;;;;;;;5.17;1.27;;;;;;;;;;1855154;77;26811;-42
2022/05/14 11:26:25;;;;;;;1.50;1.20;;;;;;;;;;1866770;76;26278;-45
2022/05/14 11:29:00;;;;;;;1.72;1.10;;;;;;;;;;1889759;76;26308;-43
2022/05/14 11:31:29;;;;;;;2.12;1.07;;;;;;;;;;1889488;75;26255;-42
2022/05/14 11:33:58;;;;;;;2.77;1.20;;;;;;;;;;1889566;76;26846;-43
2022/05/14 11:36:30;;;;;;;2.62;0.98;;;;;;;;;;1889713;76;26390;-42
2022/05/14 11:39:05;;;;;;;2.87;1.07;;;;;;;;;;1885808;75;26234;-43
2022/05/14 11:41:35;;;;;;;1.50;1.02;;;;;;;;;;1883934;74;26311;-41
2022/05/14 11:44:06;;;;;;;1.05;1.00;;;;;;;;;;1870899;76;26250;-45
2022/05/14 11:46:35;;;;;;;0.98;0.98;;;;;;;;;;1889681;75;26750;-46
2022/05/14 11:49:04;;;;;;;2.20;0.95;;;;;;;;;;1889330;76;26294;-46
2022/05/14 11:51:49;;;;;;;1.90;0.90;;;;;;;;;;1889840;76;26316;-44
2022/05/14 11:54:24;;;;;;;0.72;0.72;;;;;;;;;;1864372;74;26273;-46
2022/05/14 11:56:57;;;;;;;3.08;0.80;;;;;;;;;;1873336;76;26637;-47
2022/05/14 11:59:44;;;;;;;1.32;0.80;;;;;;;;;;1881511;75;26332;-44
2022/05/14 12:02:12;;;;;;;0.80;0.80;;;;;;;;;;1854192;75;26729;-42
2022/05/14 12:04:41;;;;;;;1.00;0.78;;;;;;;;;;1854742;75;26254;-43
2022/05/14 12:07:22;;;;;;;0.70;0.70;;;;;;;;;;1880225;75;26251;-43
2022/05/14 12:10:05;;;;;;;0.80;0.80;;;;;;;;;;1879270;76;26320;-43
2022/05/14 12:12:47;;;;;;;0.75;0.75;;;;;;;;;;1900207;75;26280;-45
2022/05/14 12:15:16;;;;;;;2.00;0.80;;;;;;;;;;1873564;76;26315;-43
2022/05/14 12:17:50;;;;;;;0.62;0.62;;;;;;;;;;1849380;77;26264;-44
2022/05/14 12:20:21;;;;;;;1.07;0.70;;;;;;;;;;1848766;77;26261;-47
2022/05/14 12:22:59;;;;;;;0.60;0.60;;;;;;;;;;1837870;77;26369;-45
2022/05/14 12:25:40;;;;;;;0.70;0.60;;;;;;;;;;1865626;76;26322;-43
2022/05/14 12:28:09;;;;;;;0.70;0.70;;;;;;;;;;1849041;76;26262;-45
2022/05/14 12:33:23;;;;;;;0.63;0.63;;;;;;;;;;1859469;75;26328;-43
2022/05/14 12:35:52;;;;;;;0.72;0.72;;;;;;;;;;1880575;76;26820;-42
2022/05/14 12:38:21;;;;;;;0.75;0.70;;;;;;;;;;1880274;76;26271;-43
2022/05/14 12:40:48;;;;;;;0.50;0.50;;;;;;;;;;1840092;76;26288;-42
2022/05/14 12:43:16;;;;;;;0.50;0.50;;;;;;;;;;1839961;77;26961;-46
2022/05/14 12:45:45;;;;;;;0.50;0.50;;;;;;;;;;1848209;75;26352;-43
2022/05/14 12:48:14;;;;;;;0.50;0.47;;;;;;;;;;1848389;77;26335;-41
2022/05/14 12:50:42;;;;;;;0.60;0.60;;;;;;;;;;1848730;77;27495;-42
2022/05/14 12:53:11;;;;;;;0.60;0.60;;;;;;;;;;1884239;76;26532;-43
2022/05/14 12:55:40;;;;;;;0.45;0.45;;;;;;;;;;1882963;75;27311;-41
2022/05/14 12:58:08;;;;;;;0.60;0.60;;;;;;;;;;1852214;76;26540;-43
2022/05/14 13:00:38;;;;;;;0.50;0.50;;;;;;;;;;1880009;76;26370;-43
2022/05/14 13:03:07;;;;;;;0.55;0.55;;;;;;;;;;1866083;75;26694;-45
2022/05/14 13:05:38;;;;;;;0.47;0.47;;;;;;;;;;1845855;76;26255;-46
2022/05/14 13:08:10;;;;;;;0.40;0.40;;;;;;;;;;1880839;75;26517;-43
2022/05/14 13:10:39;;;;;;;0.57;0.57;;;;;;;;;;1878953;76;26283;-43
2022/05/14 13:13:07;;;;;;;0.85;0.60;;;;;;;;;;1869301;76;26244;-41
2022/05/14 13:15:39;;;;;;;1.22;0.50;;;;;;;;;;1864100;76;26252;-46
2022/05/14 13:18:17;;;;;;;0.40;0.40;;;;;;;;;;1849063;76;26211;-42
2022/05/14 13:20:45;;;;;;;0.30;0.30;;;;;;;;;;1848242;77;26709;-45
2022/05/14 13:23:21;;;;;;;0.85;0.30;;;;;;;;;;1849037;76;26622;-42
2022/05/14 13:25:55;;;;;;;0.30;0.30;;;;;;;;;;1851207;76;26927;-43
2022/05/14 13:28:27;;;;;;;0.30;0.30;;;;;;;;;;1867424;76;27148;-42
2022/05/14 13:30:54;;;;;;;1.00;0.30;;;;;;;;;;1856851;75;26714;-42
2022/05/14 13:33:25;;;;;;;0.55;0.30;;;;;;;;;;1848475;77;26741;-43
2022/05/14 13:38:40;;;;;;;0.20;0.20;;;;;;;;;;1848373;77;26259;-43
2022/05/14 13:41:22;;;;;;;0.33;0.33;;;;;;;;;;1868782;75;26258;-43
2022/05/14 13:43:50;;;;;;;0.23;0.23;;;;;;;;;;1890823;75;26524;-44
2022/05/14 13:46:22;;;;;;;0.20;0.20;;;;;;;;;;1900312;75;26335;-43
2022/05/14 13:48:51;;;;;;;0.30;0.30;;;;;;;;;;1880092;76;26537;-45
2022/05/14 13:51:20;;;;;;;0.50;0.50;;;;;;;;;;1880380;76;26751;-42
2022/05/14 13:53:49;;;;;;;0.30;0.30;;;;;;;;;;1851698;75;27110;-42
2022/05/14 13:56:23;;;;;;;0.20;0.20;;;;;;;;;;1849294;76;26227;-44
2022/05/14 13:59:01;;;;;;;0.20;0.20;;;;;;;;;;1856150;76;26324;-43
2022/05/14 14:01:42;;;;;;;0.20;0.20;;;;;;;;;;1848683;77;26281;-44
2022/05/14 14:04:16;;;;;;;0.20;0.20;;;;;;;;;;1845773;75;26766;-42
2022/05/14 14:06:44;;;;;;;0.30;0.30;;;;;;;;;;1848615;76;26243;-42
2022/05/14 14:09:12;;;;;;;0.20;0.20;;;;;;;;;;1869270;76;26688;-41
2022/05/14 14:11:44;;;;;;;0.23;0.23;;;;;;;;;;1880288;76;26234;-43
2022/05/14 14:14:08;;;;;;;0.98;0.30;;;;;;;;;;1873062;75;26333;-43
2022/05/14 14:16:36;;;;;;;0.20;0.20;;;;;;;;;;1863706;75;26335;-44
2022/05/14 14:19:03;;;;;;;0.23;0.23;;;;;;;;;;1848402;77;26396;-44
2022/05/14 14:21:30;;;;;;;0.30;0.30;;;;;;;;;;1848518;77;26264;-41
2022/05/14 14:23:58;;;;;;;0.20;0.20;;;;;;;;;;1868227;76;26635;-42
2022/05/14 14:26:26;;;;;;;0.30;0.30;;;;;;;;;;1865367;75;26249;-45
2022/05/14 14:28:54;;;;;;;0.30;0.30;;;;;;;;;;1871496;76;26722;-44
2022/05/14 14:31:22;;;;;;;0.20;0.20;;;;;;;;;;1880288;76;26325;-45
2022/05/14 14:33:49;;;;;;;0.30;0.30;;;;;;;;;;1880201;75;26717;-42
2022/05/14 14:36:17;;;;;;;0.20;0.20;;;;;;;;;;1880249;75;26612;-45
2022/05/14 14:38:45;;;;;;;0.20;0.20;;;;;;;;;;1909438;75;26308;-44
2022/05/14 14:41:13;;;;;;;0.25;0.25;;;;;;;;;;1912766;75;26252;-42
2022/05/14 14:43:40;;;;;;;0.25;0.25;;;;;;;;;;1883544;75;26697;-42
2022/05/14 14:46:08;;;;;;;0.30;0.30;;;;;;;;;;1866598;75;26708;-45
2022/05/14 14:48:40;;;;;;;0.20;0.20;;;;;;;;;;1870904;76;26261;-41
2022/05/14 14:51:07;;;;;;;0.20;0.20;;;;;;;;;;1847286;77;26277;-42
2022/05/14 14:53:35;;;;;;;0.20;0.20;;;;;;;;;;1848688;77;26286;-44
2022/05/14 14:56:03;;;;;;;0.30;0.28;;;;;;;;;;1850759;76;26267;-44
2022/05/14 14:58:31;;;;;;;0.10;0.10;;;;;;;;;;1857402;75;26312;-44
2022/05/14 15:00:58;;;;;;;0.20;0.20;;;;;;;;;;1856240;75;26311;-44
2022/05/14 15:03:33;;;;;;;0.17;0.17;;;;;;;;;;1879602;75;26270;-42
2022/05/14 15:06:01;;;;;;;0.20;0.20;;;;;;;;;;1895753;75;26951;-46
2022/05/14 15:08:33;;;;;;;0.30;0.30;;;;;;;;;;1895305;75;26697;-45
2022/05/14 15:11:01;;;;;;;0.20;0.20;;;;;;;;;;1887245;74;26287;-48
2022/05/14 15:13:30;;;;;;;0.20;0.20;;;;;;;;;;1863745;77;26725;-44
2022/05/14 15:15:57;;;;;;;0.20;0.20;;;;;;;;;;1863801;76;26248;-42
2022/05/14 15:18:24;;;;;;;0.30;0.30;;;;;;;;;;1863517;77;26775;-43
2022/05/14 15:20:52;;;;;;;0.30;0.30;;;;;;;;;;1863869;77;26703;-44
2022/05/14 15:23:19;;;;;;;0.30;0.30;;;;;;;;;;1864125;74;26225;-45